createdAt,value
2017-01-11T21:53:54.085Z,23.09
2017-01-11T21:54:10.797Z,23.09
2017-01-11T21:54:27.516Z,23.09
2017-01-11T21:54:44.214Z,23.07
2017-01-11T21:55:00.953Z,23.15
2017-01-11T21:55:17.659Z,23.04
2017-01-11T21:55:34.390Z,23.08
2017-01-11T21:55:51.103Z,23.15
2017-01-11T21:56:07.834Z,23.05
2017-01-11T21:56:24.521Z,23.17
2017-01-11T21:56:41.251Z,23.14
2017-01-11T21:56:58.214Z,23.22
2017-01-11T21:57:14.931Z,23.2
2017-01-11T21:57:33.661Z,23.09
2017-01-11T21:57:50.388Z,23.14
2017-01-11T21:58:07.111Z,23.12
2017-01-11T21:58:23.832Z,23.15
2017-01-11T21:58:41.136Z,23.18
2017-01-11T21:58:57.866Z,23.09
2017-01-11T21:59:14.581Z,23.14
2017-01-11T21:59:31.322Z,23.17
2017-01-11T21:59:48.024Z,23.08
2017-01-11T22:00:04.731Z,22.97
2017-01-11T22:00:22.046Z,23.09
2017-01-11T22:00:38.780Z,23.02
2017-01-11T22:00:55.535Z,23.07
2017-01-11T22:01:12.869Z,23.07
2017-01-11T22:01:29.587Z,23.11
2017-01-11T22:01:46.296Z,23.09
2017-01-11T22:02:03.028Z,23.07
2017-01-11T22:02:19.731Z,23.12
2017-01-11T22:02:36.456Z,23.14
2017-01-11T22:02:53.186Z,23.14
2017-01-11T22:03:09.928Z,23.15
2017-01-11T22:03:26.642Z,23.09
2017-01-11T22:03:43.378Z,23.08
2017-01-11T22:04:00.084Z,23.05
2017-01-11T22:04:16.803Z,23.14
2017-01-11T22:04:33.523Z,23.09
2017-01-11T22:04:50.223Z,23.07
2017-01-11T22:05:07.531Z,23.07
2017-01-11T22:05:24.254Z,23.12
2017-01-11T22:05:41.567Z,23.08
2017-01-11T22:05:58.284Z,23.11
2017-01-11T22:06:14.983Z,23.08
2017-01-11T22:06:31.670Z,23.05
2017-01-11T22:06:48.387Z,23.11
2017-01-11T22:07:05.101Z,23.14
2017-01-11T22:07:21.855Z,23.11
2017-01-11T22:07:38.603Z,23.07
2017-01-11T22:07:55.921Z,23.09
2017-01-11T22:08:12.640Z,23.12
2017-01-11T22:08:29.362Z,23.09
2017-01-11T22:08:46.109Z,23.05
2017-01-11T22:09:02.820Z,23.12
2017-01-11T22:09:19.521Z,23.09
2017-01-11T22:09:36.235Z,23.02
2017-01-11T22:09:52.973Z,23.07
2017-01-11T22:10:09.678Z,23.07
2017-01-11T22:10:26.406Z,23.14
2017-01-11T22:10:43.150Z,23.14
2017-01-11T22:10:59.870Z,23.11
2017-01-11T22:11:16.596Z,23.09
2017-01-11T22:11:33.926Z,23.14
2017-01-11T22:11:50.660Z,23.07
2017-01-11T22:12:07.339Z,23.07
2017-01-11T22:12:24.056Z,23.08
2017-01-11T22:12:40.748Z,23.04
2017-01-11T22:12:57.487Z,23.11
2017-01-11T22:13:14.201Z,22.94
2017-01-11T22:13:30.908Z,22.92
2017-01-11T22:13:47.619Z,23.07
2017-01-11T22:14:04.319Z,23
2017-01-11T22:14:21.043Z,23.11
2017-01-11T22:14:37.739Z,23.07
2017-01-11T22:14:54.441Z,23.08
2017-01-11T22:15:11.157Z,23.08
2017-01-11T22:15:27.876Z,23.11
2017-01-11T22:15:44.571Z,23.09
2017-01-11T22:16:01.281Z,23.09
2017-01-11T22:16:17.987Z,23.09
2017-01-11T22:16:34.741Z,23.08
2017-01-11T22:16:51.462Z,23.08
2017-01-11T22:17:08.169Z,23.09
2017-01-11T22:17:24.903Z,23.11
2017-01-11T22:17:41.594Z,23.07
2017-01-11T22:17:58.339Z,23.09
2017-01-11T22:18:15.074Z,22.96
2017-01-11T22:18:31.798Z,23.05
2017-01-11T22:18:48.505Z,23.08
2017-01-11T22:19:05.233Z,23.09
2017-01-11T22:19:21.988Z,23.04
2017-01-11T22:19:38.701Z,23.09
2017-01-11T22:19:55.432Z,23.11
2017-01-11T22:20:12.150Z,23.08
2017-01-11T22:20:28.874Z,23.07
2017-01-11T22:20:45.628Z,23.05
2017-01-11T22:21:02.391Z,23
2017-01-11T22:21:19.130Z,22.96
2017-01-11T22:21:35.848Z,23.04
2017-01-11T22:21:52.554Z,23
2017-01-11T22:22:09.256Z,23.05
2017-01-11T22:22:25.972Z,23.04
2017-01-11T22:22:42.714Z,23
2017-01-11T22:22:59.495Z,22.99
2017-01-11T22:23:16.232Z,22.99
2017-01-11T22:23:32.970Z,22.94
2017-01-11T22:23:49.672Z,23.05
2017-01-11T22:24:06.395Z,23.08
2017-01-11T22:24:23.077Z,22.93
2017-01-11T22:24:39.863Z,23
2017-01-11T22:24:56.583Z,22.94
2017-01-11T22:25:13.327Z,22.93
2017-01-11T22:25:30.070Z,22.99
2017-01-11T22:25:46.787Z,22.92
2017-01-11T22:26:03.492Z,22.93
2017-01-11T22:26:20.267Z,23
2017-01-11T22:26:36.999Z,22.93
2017-01-11T22:26:53.734Z,23.08
2017-01-11T22:27:10.430Z,22.99
2017-01-11T22:27:27.131Z,23
2017-01-11T22:27:43.831Z,22.96
2017-01-11T22:28:00.554Z,22.97
2017-01-11T22:28:17.267Z,23.02
2017-01-11T22:28:33.979Z,23.04
2017-01-11T22:28:50.725Z,23.04
2017-01-11T22:29:07.433Z,22.93
2017-01-11T22:29:24.148Z,22.97
2017-01-11T22:29:40.883Z,22.97
2017-01-11T22:29:57.636Z,23.04
2017-01-11T22:30:14.360Z,22.96
2017-01-11T22:30:31.096Z,22.96
2017-01-11T22:30:47.840Z,22.99
2017-01-11T22:31:04.538Z,23.05
2017-01-11T22:31:21.246Z,23.04
2017-01-11T22:31:37.940Z,22.94
2017-01-11T22:31:54.671Z,23
2017-01-11T22:32:11.409Z,23.04
2017-01-11T22:32:28.123Z,23
2017-01-11T22:32:44.897Z,22.92
2017-01-11T22:33:01.595Z,22.92
2017-01-11T22:33:18.512Z,22.89
2017-01-11T22:33:35.251Z,22.99
2017-01-11T22:33:51.952Z,22.93
2017-01-11T22:34:08.669Z,22.87
2017-01-11T22:34:25.395Z,22.9
2017-01-11T22:34:42.159Z,22.87
2017-01-11T22:34:58.883Z,22.83
2017-01-11T22:35:16.431Z,22.9
2017-01-11T22:35:33.163Z,22.93
2017-01-11T22:35:49.879Z,22.77
2017-01-11T22:36:06.595Z,22.87
2017-01-11T22:36:23.304Z,22.74
2017-01-11T22:36:40.015Z,22.89
2017-01-11T22:36:56.750Z,22.87
2017-01-11T22:37:13.449Z,22.72
2017-01-11T22:37:30.229Z,22.87
2017-01-11T22:37:46.937Z,22.87
2017-01-11T22:38:03.623Z,22.78
2017-01-11T22:38:20.341Z,22.78
2017-01-11T22:38:37.101Z,22.71
2017-01-11T22:38:54.395Z,22.78
2017-01-11T22:39:11.117Z,22.77
2017-01-11T22:39:28.455Z,22.78
2017-01-11T22:39:45.151Z,22.74
2017-01-11T22:40:01.868Z,22.81
2017-01-11T22:40:18.558Z,22.74
2017-01-11T22:40:35.280Z,22.81
2017-01-11T22:40:51.988Z,22.86
2017-01-11T22:41:08.693Z,22.83
2017-01-11T22:41:25.436Z,22.75
2017-01-11T22:41:42.844Z,22.84
2017-01-11T22:41:59.569Z,22.71
2017-01-11T22:42:16.274Z,22.79
2017-01-11T22:42:33.027Z,22.78
2017-01-11T22:42:49.722Z,22.81
2017-01-11T22:43:06.432Z,22.74
2017-01-11T22:43:23.231Z,22.84
2017-01-11T22:43:39.971Z,22.71
2017-01-11T22:43:56.694Z,22.78
2017-01-11T22:44:13.435Z,22.79
2017-01-11T22:44:30.171Z,22.69
2017-01-11T22:44:46.952Z,22.78
2017-01-11T22:45:03.649Z,22.63
2017-01-11T22:45:20.379Z,22.75
2017-01-11T22:45:37.106Z,22.75
2017-01-11T22:45:53.834Z,22.74
2017-01-11T22:46:11.163Z,22.71
2017-01-11T22:46:27.857Z,22.74
2017-01-11T22:46:44.665Z,22.67
2017-01-11T22:47:01.387Z,22.77
2017-01-11T22:47:18.095Z,22.68
2017-01-11T22:47:34.824Z,22.77
2017-01-11T22:47:51.530Z,22.75
2017-01-11T22:48:08.242Z,22.75
2017-01-11T22:48:24.944Z,22.72
2017-01-11T22:48:41.703Z,22.78
2017-01-11T22:48:58.407Z,22.75
2017-01-11T22:49:15.395Z,22.78
2017-01-11T22:49:32.139Z,22.71
2017-01-11T22:49:48.895Z,22.81
2017-01-11T22:50:05.813Z,22.75
2017-01-11T22:50:22.542Z,22.78
2017-01-11T22:50:39.289Z,22.87
2017-01-11T22:50:55.999Z,22.71
2017-01-11T22:51:12.900Z,22.72
2017-01-11T22:51:29.722Z,22.71
2017-01-11T22:51:46.680Z,22.77
2017-01-11T22:52:03.426Z,22.87
2017-01-11T22:52:20.242Z,22.74
2017-01-11T22:52:37.023Z,22.79
2017-01-11T22:52:53.740Z,22.77
2017-01-11T22:53:10.492Z,22.75
2017-01-11T22:53:27.205Z,22.72
2017-01-11T22:53:43.931Z,22.75
2017-01-11T22:54:00.674Z,22.68
2017-01-11T22:54:17.410Z,22.74
2017-01-11T22:54:34.118Z,22.65
2017-01-11T22:54:50.814Z,22.69
2017-01-11T22:55:07.615Z,22.65
2017-01-11T22:55:24.306Z,22.71
2017-01-11T22:55:41.072Z,22.71
2017-01-11T22:55:57.829Z,22.68
2017-01-11T22:56:14.555Z,22.75
2017-01-11T22:56:31.343Z,22.75
2017-01-11T22:56:48.081Z,22.75
2017-01-11T22:57:04.913Z,22.75
2017-01-11T22:57:21.640Z,22.78
2017-01-11T22:57:38.329Z,22.68
2017-01-11T22:57:55.094Z,22.75
2017-01-11T22:58:11.823Z,22.81
2017-01-11T22:58:28.535Z,22.84
2017-01-11T22:58:45.243Z,22.81
2017-01-11T22:59:01.961Z,22.84
2017-01-11T22:59:18.756Z,22.92
2017-01-11T22:59:35.479Z,22.9
2017-01-11T22:59:52.219Z,22.79
2017-01-11T23:00:08.933Z,22.83
2017-01-11T23:00:25.653Z,22.81
2017-01-11T23:00:42.383Z,22.75
2017-01-11T23:00:59.110Z,22.81
2017-01-11T23:01:15.910Z,22.86
2017-01-11T23:01:32.661Z,22.94
2017-01-11T23:01:49.440Z,22.84
2017-01-11T23:02:06.803Z,22.9
2017-01-11T23:02:23.510Z,22.9
2017-01-11T23:02:40.289Z,22.93
2017-01-11T23:02:56.974Z,22.92
2017-01-11T23:03:13.689Z,22.94
2017-01-11T23:03:30.379Z,22.9
2017-01-11T23:03:47.105Z,22.89
2017-01-11T23:04:03.813Z,22.93
2017-01-11T23:04:20.538Z,22.86
2017-01-11T23:04:37.263Z,22.9
2017-01-11T23:04:53.994Z,22.93
2017-01-11T23:05:10.693Z,22.89
2017-01-11T23:05:27.404Z,22.84
2017-01-11T23:05:44.122Z,22.86
2017-01-11T23:06:00.808Z,22.87
2017-01-11T23:06:17.499Z,22.89
2017-01-11T23:06:34.196Z,22.92
2017-01-11T23:06:50.902Z,22.86
2017-01-11T23:07:07.604Z,22.89
2017-01-11T23:07:24.300Z,22.84
2017-01-11T23:07:41.030Z,22.84
2017-01-11T23:07:57.768Z,22.83
2017-01-11T23:08:14.486Z,22.78
2017-01-11T23:08:31.211Z,22.81
2017-01-11T23:08:47.912Z,22.78
2017-01-11T23:09:04.606Z,22.79
2017-01-11T23:09:21.303Z,22.81
2017-01-11T23:09:38.001Z,22.83
2017-01-11T23:09:54.725Z,22.79
2017-01-11T23:10:11.434Z,22.84
2017-01-11T23:10:28.147Z,22.86
2017-01-11T23:10:45.441Z,22.89
2017-01-11T23:11:02.141Z,22.94
2017-01-11T23:11:19.464Z,22.81
2017-01-11T23:11:36.178Z,22.84
2017-01-11T23:11:52.900Z,22.72
2017-01-11T23:12:09.946Z,22.78
2017-01-11T23:12:26.660Z,22.77
2017-01-11T23:12:43.346Z,22.78
2017-01-11T23:13:00.049Z,22.81
2017-01-11T23:13:16.766Z,22.83
2017-01-11T23:13:33.459Z,22.78
2017-01-11T23:13:50.202Z,22.74
2017-01-11T23:14:06.933Z,22.74
2017-01-11T23:14:23.634Z,22.79
2017-01-11T23:14:40.356Z,22.79
2017-01-11T23:14:57.081Z,22.92
2017-01-11T23:15:14.795Z,22.92
2017-01-11T23:15:31.516Z,22.97
2017-01-11T23:15:48.225Z,22.9
2017-01-11T23:16:04.916Z,22.84
2017-01-11T23:16:21.628Z,22.89
2017-01-11T23:16:38.347Z,22.9
2017-01-11T23:16:55.065Z,22.93
2017-01-11T23:17:11.785Z,22.84
2017-01-11T23:17:28.521Z,22.84
2017-01-11T23:17:45.232Z,22.81
2017-01-11T23:18:01.950Z,22.77
2017-01-11T23:18:18.665Z,22.86
2017-01-11T23:18:35.354Z,22.84
2017-01-11T23:18:52.070Z,22.86
2017-01-11T23:19:08.818Z,22.74
2017-01-11T23:19:26.144Z,22.79
2017-01-11T23:19:42.852Z,22.78
2017-01-11T23:19:59.535Z,22.78
2017-01-11T23:20:16.263Z,22.81
2017-01-11T23:20:32.975Z,22.89
2017-01-11T23:20:49.690Z,22.84
2017-01-11T23:21:06.395Z,22.89
2017-01-11T23:21:23.088Z,22.86
2017-01-11T23:21:39.799Z,22.92
2017-01-11T23:21:56.520Z,22.84
2017-01-11T23:22:13.209Z,22.86
2017-01-11T23:22:29.929Z,22.87
2017-01-11T23:22:46.673Z,22.87
2017-01-11T23:23:03.975Z,22.97
2017-01-11T23:23:20.672Z,22.87
2017-01-11T23:23:37.384Z,22.9
2017-01-11T23:23:54.103Z,22.84
2017-01-11T23:24:10.834Z,22.92
2017-01-11T23:24:27.539Z,22.92
2017-01-11T23:24:44.290Z,22.92
2017-01-11T23:25:00.999Z,22.86
2017-01-11T23:25:17.930Z,22.92
2017-01-11T23:25:34.644Z,22.89
2017-01-11T23:25:51.359Z,22.83
2017-01-11T23:26:08.087Z,22.87
2017-01-11T23:26:24.830Z,22.79
2017-01-11T23:26:41.516Z,22.78
2017-01-11T23:26:58.220Z,22.81
2017-01-11T23:27:14.950Z,22.83
2017-01-11T23:27:32.223Z,22.87
2017-01-11T23:27:48.949Z,22.78
2017-01-11T23:28:05.690Z,22.89
2017-01-11T23:28:22.395Z,22.89
2017-01-11T23:28:39.105Z,22.92
2017-01-11T23:28:55.830Z,22.93
2017-01-11T23:29:12.551Z,22.89
2017-01-11T23:29:29.278Z,22.87
2017-01-11T23:29:45.980Z,22.96
2017-01-11T23:30:02.686Z,22.93
2017-01-11T23:30:19.425Z,22.87
2017-01-11T23:30:36.133Z,22.92
2017-01-11T23:30:53.446Z,22.93
2017-01-11T23:31:10.158Z,22.89
2017-01-11T23:31:26.861Z,22.9
2017-01-11T23:31:43.572Z,23
2017-01-11T23:32:00.262Z,22.92
2017-01-11T23:32:16.962Z,22.9
2017-01-11T23:32:33.726Z,22.93
2017-01-11T23:32:50.446Z,22.86
2017-01-11T23:33:07.165Z,22.87
2017-01-11T23:33:23.897Z,22.9
2017-01-11T23:33:40.646Z,22.97
2017-01-11T23:33:57.358Z,22.99
2017-01-11T23:34:14.682Z,22.86
2017-01-11T23:34:32.002Z,22.87
2017-01-11T23:34:48.704Z,22.81
2017-01-11T23:35:19.912Z,22.78
2017-01-11T23:35:36.642Z,22.84
2017-01-11T23:35:53.358Z,22.84
2017-01-11T23:36:10.085Z,22.79
2017-01-11T23:36:26.784Z,22.83
2017-01-11T23:36:43.512Z,22.74
2017-01-11T23:37:00.319Z,22.77
2017-01-11T23:37:17.050Z,22.78
2017-01-11T23:37:33.809Z,22.77
2017-01-11T23:37:50.499Z,22.74
2017-01-11T23:38:07.209Z,22.79
2017-01-11T23:38:23.941Z,22.78
2017-01-11T23:38:40.674Z,22.83
2017-01-11T23:38:57.377Z,22.74
2017-01-11T23:39:14.097Z,22.77
2017-01-11T23:39:30.822Z,22.79
2017-01-11T23:39:47.552Z,22.87
2017-01-11T23:40:04.883Z,22.84
2017-01-11T23:40:21.570Z,22.83
2017-01-11T23:40:38.263Z,22.86
2017-01-11T23:40:54.969Z,22.92
2017-01-11T23:41:11.782Z,22.89
2017-01-11T23:41:28.506Z,22.89
2017-01-11T23:41:45.222Z,22.87
2017-01-11T23:42:01.924Z,22.86
2017-01-11T23:42:18.636Z,22.87
2017-01-11T23:42:35.354Z,22.86
2017-01-11T23:42:52.060Z,22.78
2017-01-11T23:43:08.785Z,22.74
2017-01-11T23:43:25.505Z,22.81
2017-01-11T23:43:42.212Z,22.92
2017-01-11T23:43:58.919Z,22.87
2017-01-11T23:44:15.641Z,22.89
2017-01-11T23:44:32.365Z,22.84
2017-01-11T23:44:49.155Z,22.78
2017-01-11T23:45:06.743Z,22.86
2017-01-11T23:45:23.463Z,22.78
2017-01-11T23:45:40.155Z,22.78
2017-01-11T23:45:56.851Z,22.79
2017-01-11T23:46:13.560Z,22.72
2017-01-11T23:46:30.302Z,22.71
2017-01-11T23:46:47.002Z,22.74
2017-01-11T23:47:03.724Z,22.72
2017-01-11T23:47:20.445Z,22.72
2017-01-11T23:47:37.131Z,22.71
2017-01-11T23:47:53.851Z,22.77
2017-01-11T23:48:10.645Z,22.79
2017-01-11T23:48:27.427Z,22.78
2017-01-11T23:48:44.193Z,22.75
2017-01-11T23:49:00.984Z,22.86
2017-01-11T23:49:17.689Z,22.86
2017-01-11T23:49:34.442Z,22.86
2017-01-11T23:49:51.171Z,22.75
2017-01-11T23:50:22.381Z,22.75
2017-01-11T23:50:39.093Z,22.77
2017-01-11T23:50:55.857Z,22.71
2017-01-11T23:51:12.598Z,22.77
2017-01-11T23:51:29.314Z,22.78
2017-01-11T23:51:46.061Z,22.84
2017-01-11T23:52:02.819Z,22.79
2017-01-11T23:52:19.534Z,22.75
2017-01-11T23:52:36.520Z,22.89
2017-01-11T23:52:53.235Z,22.72
2017-01-11T23:53:10.041Z,22.77
2017-01-11T23:53:26.757Z,22.78
2017-01-11T23:53:43.460Z,22.77
2017-01-11T23:54:00.225Z,22.79
2017-01-11T23:54:16.944Z,22.75
2017-01-11T23:54:33.667Z,22.87
2017-01-11T23:54:50.388Z,22.75
2017-01-11T23:55:07.101Z,22.77
2017-01-11T23:55:24.062Z,22.84
2017-01-11T23:55:40.791Z,22.89
2017-01-11T23:55:57.492Z,22.89
2017-01-11T23:56:14.195Z,22.9
2017-01-11T23:56:30.904Z,22.84
2017-01-11T23:56:47.587Z,22.83
2017-01-11T23:57:04.313Z,22.81
2017-01-11T23:57:21.034Z,22.87
2017-01-11T23:57:37.785Z,22.84
2017-01-11T23:57:54.497Z,22.81
2017-01-11T23:58:11.214Z,22.9
2017-01-11T23:58:27.933Z,22.93
2017-01-11T23:58:44.639Z,22.9
2017-01-11T23:59:01.334Z,22.87
2017-01-11T23:59:18.043Z,22.83
2017-01-11T23:59:34.750Z,22.79
2017-01-11T23:59:51.449Z,22.79
